sensor_id;sensor_type;location;lat;lon;timestamp;pressure;altitude;pressure_sealevel;temperature;humidity
42603;BME280;28233;55.748;48.752;2023-02-28T00:00:25;98791.31;;;-3.30;86.96
42603;BME280;28233;55.748;48.752;2023-02-28T00:02:28;98780.78;;;-3.32;86.65
42603;BME280;28233;55.748;48.752;2023-02-28T00:04:30;98794.66;;;-3.40;86.76
42603;BME280;28233;55.748;48.752;2023-02-28T00:06:33;98771.88;;;-3.37;86.42
42603;BME280;28233;55.748;48.752;2023-02-28T00:08:36;98770.50;;;-3.40;85.91
42603;BME280;28233;55.748;48.752;2023-02-28T00:10:39;98780.09;;;-3.44;85.46
42603;BME280;28233;55.748;48.752;2023-02-28T00:12:42;98792.09;;;-3.52;85.44
42603;BME280;28233;55.748;48.752;2023-02-28T00:14:44;98787.03;;;-3.48;85.82
42603;BME280;28233;55.748;48.752;2023-02-28T00:16:47;98783.81;;;-3.50;85.64
42603;BME280;28233;55.748;48.752;2023-02-28T00:18:50;98778.97;;;-3.48;85.71
42603;BME280;28233;55.748;48.752;2023-02-28T00:20:53;98775.19;;;-3.52;85.50
42603;BME280;28233;55.748;48.752;2023-02-28T00:22:55;98771.34;;;-3.56;85.44
42603;BME280;28233;55.748;48.752;2023-02-28T00:24:58;98778.59;;;-3.57;85.76
42603;BME280;28233;55.748;48.752;2023-02-28T00:27:01;98780.72;;;-3.59;85.44
42603;BME280;28233;55.748;48.752;2023-02-28T00:29:03;98765.66;;;-3.60;85.38
42603;BME280;28233;55.748;48.752;2023-02-28T00:31:06;98783.81;;;-3.67;85.49
42603;BME280;28233;55.748;48.752;2023-02-28T00:33:08;98761.75;;;-3.69;84.89
42603;BME280;28233;55.748;48.752;2023-02-28T00:35:12;98776.75;;;-3.73;85.59
42603;BME280;28233;55.748;48.752;2023-02-28T00:37:15;98797.44;;;-3.74;85.41
42603;BME280;28233;55.748;48.752;2023-02-28T00:39:17;98779.91;;;-3.76;84.34
42603;BME280;28233;55.748;48.752;2023-02-28T00:41:22;98762.38;;;-3.84;83.98
42603;BME280;28233;55.748;48.752;2023-02-28T00:43:24;98787.16;;;-3.77;84.11
42603;BME280;28233;55.748;48.752;2023-02-28T00:45:27;98777.66;;;-3.85;84.30
42603;BME280;28233;55.748;48.752;2023-02-28T00:47:29;98779.53;;;-3.85;84.35
42603;BME280;28233;55.748;48.752;2023-02-28T00:49:32;98769.84;;;-3.86;84.05
42603;BME280;28233;55.748;48.752;2023-02-28T00:51:35;98774.09;;;-3.90;84.30
42603;BME280;28233;55.748;48.752;2023-02-28T00:53:37;98780.50;;;-3.91;84.74
42603;BME280;28233;55.748;48.752;2023-02-28T00:55:40;98804.66;;;-3.91;84.33
42603;BME280;28233;55.748;48.752;2023-02-28T00:57:42;98782.63;;;-3.93;84.33
42603;BME280;28233;55.748;48.752;2023-02-28T00:59:45;98765.41;;;-3.97;84.25
42603;BME280;28233;55.748;48.752;2023-02-28T01:01:47;98799.47;;;-3.98;85.12
42603;BME280;28233;55.748;48.752;2023-02-28T01:03:50;98796.19;;;-4.00;85.16
42603;BME280;28233;55.748;48.752;2023-02-28T01:05:53;98775.56;;;-3.99;84.50
42603;BME280;28233;55.748;48.752;2023-02-28T01:07:55;98787.91;;;-3.98;85.37
42603;BME280;28233;55.748;48.752;2023-02-28T01:09:58;98793.53;;;-4.00;85.33
42603;BME280;28233;55.748;48.752;2023-02-28T01:12:00;98786.53;;;-4.01;84.81
42603;BME280;28233;55.748;48.752;2023-02-28T01:14:03;98804.25;;;-4.00;84.10
42603;BME280;28233;55.748;48.752;2023-02-28T01:16:06;98812.31;;;-4.00;84.90
42603;BME280;28233;55.748;48.752;2023-02-28T01:18:09;98768.00;;;-4.03;84.58
42603;BME280;28233;55.748;48.752;2023-02-28T01:20:11;98775.47;;;-4.05;84.92
42603;BME280;28233;55.748;48.752;2023-02-28T01:22:14;98794.25;;;-4.05;85.17
42603;BME280;28233;55.748;48.752;2023-02-28T01:24:17;98787.03;;;-4.04;85.57
42603;BME280;28233;55.748;48.752;2023-02-28T01:26:21;98758.84;;;-4.07;85.36
42603;BME280;28233;55.748;48.752;2023-02-28T01:28:24;98784.34;;;-4.04;85.22
42603;BME280;28233;55.748;48.752;2023-02-28T01:30:27;98763.28;;;-4.12;85.59
42603;BME280;28233;55.748;48.752;2023-02-28T01:32:29;98781.56;;;-4.09;85.59
42603;BME280;28233;55.748;48.752;2023-02-28T01:34:32;98783.44;;;-4.10;85.87
42603;BME280;28233;55.748;48.752;2023-02-28T01:36:35;98782.06;;;-4.12;85.94
42603;BME280;28233;55.748;48.752;2023-02-28T01:38:39;98785.00;;;-4.14;86.87
42603;BME280;28233;55.748;48.752;2023-02-28T01:40:42;98778.56;;;-4.13;86.35
42603;BME280;28233;55.748;48.752;2023-02-28T01:42:45;98792.31;;;-4.09;86.99
42603;BME280;28233;55.748;48.752;2023-02-28T01:44:58;98775.66;;;-4.11;86.69
42603;BME280;28233;55.748;48.752;2023-02-28T01:47:01;98757.13;;;-4.13;87.43
42603;BME280;28233;55.748;48.752;2023-02-28T01:49:08;98778.00;;;-4.15;87.38
42603;BME280;28233;55.748;48.752;2023-02-28T01:51:15;98764.03;;;-4.17;87.55
42603;BME280;28233;55.748;48.752;2023-02-28T01:53:26;98770.19;;;-4.16;87.59
42603;BME280;28233;55.748;48.752;2023-02-28T01:55:33;98772.56;;;-4.20;88.43
42603;BME280;28233;55.748;48.752;2023-02-28T01:57:46;98768.00;;;-4.19;88.07
42603;BME280;28233;55.748;48.752;2023-02-28T01:59:55;98769.06;;;-4.20;88.08
42603;BME280;28233;55.748;48.752;2023-02-28T02:02:01;98756.69;;;-4.21;88.06
42603;BME280;28233;55.748;48.752;2023-02-28T02:04:04;98763.13;;;-4.22;88.56
42603;BME280;28233;55.748;48.752;2023-02-28T02:06:07;98777.03;;;-4.26;88.42
42603;BME280;28233;55.748;48.752;2023-02-28T02:08:17;98749.81;;;-4.34;87.91
42603;BME280;28233;55.748;48.752;2023-02-28T02:15:05;98776.78;;;-4.41;87.86
42603;BME280;28233;55.748;48.752;2023-02-28T02:24:53;98764.72;;;-4.55;87.16
42603;BME280;28233;55.748;48.752;2023-02-28T02:32:16;98775.13;;;-4.59;87.70
42603;BME280;28233;55.748;48.752;2023-02-28T02:39:17;98769.94;;;-4.65;88.37
42603;BME280;28233;55.748;48.752;2023-02-28T02:41:36;98752.69;;;-4.70;88.26
42603;BME280;28233;55.748;48.752;2023-02-28T02:43:46;98766.91;;;-4.69;88.21
42603;BME280;28233;55.748;48.752;2023-02-28T02:45:59;98762.03;;;-4.72;87.63
42603;BME280;28233;55.748;48.752;2023-02-28T02:48:07;98764.72;;;-4.72;88.22
42603;BME280;28233;55.748;48.752;2023-02-28T02:50:16;98764.44;;;-4.71;88.13
42603;BME280;28233;55.748;48.752;2023-02-28T02:52:23;98780.69;;;-4.77;87.97
42603;BME280;28233;55.748;48.752;2023-02-28T02:54:30;98765.75;;;-4.73;87.00
42603;BME280;28233;55.748;48.752;2023-02-28T02:56:36;98745.88;;;-4.77;86.47
42603;BME280;28233;55.748;48.752;2023-02-28T02:58:43;98761.59;;;-4.81;86.59
42603;BME280;28233;55.748;48.752;2023-02-28T03:00:50;98770.22;;;-4.79;87.09
42603;BME280;28233;55.748;48.752;2023-02-28T03:02:56;98786.78;;;-4.82;87.08
42603;BME280;28233;55.748;48.752;2023-02-28T03:05:02;98790.50;;;-4.83;87.46
42603;BME280;28233;55.748;48.752;2023-02-28T03:07:06;98770.94;;;-4.83;87.66
42603;BME280;28233;55.748;48.752;2023-02-28T03:09:09;98759.16;;;-4.82;87.89
42603;BME280;28233;55.748;48.752;2023-02-28T03:11:13;98754.84;;;-4.83;87.75
42603;BME280;28233;55.748;48.752;2023-02-28T03:18:10;98760.34;;;-4.90;87.11
42603;BME280;28233;55.748;48.752;2023-02-28T03:20:49;98789.72;;;-4.95;86.62
42603;BME280;28233;55.748;48.752;2023-02-28T03:28:01;98760.97;;;-5.00;87.38
42603;BME280;28233;55.748;48.752;2023-02-28T03:30:10;98768.66;;;-5.03;87.10
42603;BME280;28233;55.748;48.752;2023-02-28T03:32:28;98750.16;;;-5.05;87.15
42603;BME280;28233;55.748;48.752;2023-02-28T03:34:41;98774.50;;;-5.06;86.97
42603;BME280;28233;55.748;48.752;2023-02-28T03:36:49;98747.16;;;-5.08;86.55
42603;BME280;28233;55.748;48.752;2023-02-28T03:39:03;98748.78;;;-5.07;86.76
42603;BME280;28233;55.748;48.752;2023-02-28T03:41:15;98737.00;;;-5.06;87.12
42603;BME280;28233;55.748;48.752;2023-02-28T03:43:23;98725.25;;;-5.05;87.28
42603;BME280;28233;55.748;48.752;2023-02-28T03:45:29;98754.94;;;-5.07;87.57
42603;BME280;28233;55.748;48.752;2023-02-28T03:47:52;98738.06;;;-5.07;86.35
42603;BME280;28233;55.748;48.752;2023-02-28T03:50:00;98765.09;;;-5.09;85.83
42603;BME280;28233;55.748;48.752;2023-02-28T03:52:07;98733.75;;;-5.08;85.53
42603;BME280;28233;55.748;48.752;2023-02-28T03:54:15;98759.06;;;-5.16;85.76
42603;BME280;28233;55.748;48.752;2023-02-28T03:57:12;98726.19;;;-5.12;85.08
42603;BME280;28233;55.748;48.752;2023-02-28T03:59:37;98723.88;;;-5.20;85.62
42603;BME280;28233;55.748;48.752;2023-02-28T04:01:47;98726.81;;;-5.21;85.59
42603;BME280;28233;55.748;48.752;2023-02-28T04:03:50;98717.00;;;-5.16;85.88
42603;BME280;28233;55.748;48.752;2023-02-28T04:05:55;98730.19;;;-5.14;86.14
42603;BME280;28233;55.748;48.752;2023-02-28T04:08:06;98748.91;;;-5.14;86.57
42603;BME280;28233;55.748;48.752;2023-02-28T04:10:09;98716.56;;;-5.13;86.38
42603;BME280;28233;55.748;48.752;2023-02-28T04:12:13;98731.91;;;-5.20;85.62
42603;BME280;28233;55.748;48.752;2023-02-28T04:14:16;98724.81;;;-5.14;85.70
42603;BME280;28233;55.748;48.752;2023-02-28T04:16:19;98727.28;;;-5.13;84.74
42603;BME280;28233;55.748;48.752;2023-02-28T04:18:36;98728.31;;;-5.14;84.09
42603;BME280;28233;55.748;48.752;2023-02-28T04:20:38;98754.06;;;-5.13;83.62
42603;BME280;28233;55.748;48.752;2023-02-28T04:22:41;98718.16;;;-5.12;82.90
42603;BME280;28233;55.748;48.752;2023-02-28T04:24:44;98720.75;;;-5.17;82.73
42603;BME280;28233;55.748;48.752;2023-02-28T04:26:49;98740.09;;;-5.15;83.55
42603;BME280;28233;55.748;48.752;2023-02-28T04:28:52;98700.94;;;-5.16;83.47
42603;BME280;28233;55.748;48.752;2023-02-28T04:31:00;98722.13;;;-5.14;83.12
42603;BME280;28233;55.748;48.752;2023-02-28T04:33:03;98712.81;;;-5.12;83.72
42603;BME280;28233;55.748;48.752;2023-02-28T04:35:06;98717.09;;;-5.11;83.93
42603;BME280;28233;55.748;48.752;2023-02-28T04:37:08;98694.06;;;-5.12;83.98
42603;BME280;28233;55.748;48.752;2023-02-28T04:39:18;98706.97;;;-5.08;84.80
42603;BME280;28233;55.748;48.752;2023-02-28T04:41:21;98704.06;;;-5.07;84.84
42603;BME280;28233;55.748;48.752;2023-02-28T04:43:23;98690.97;;;-5.03;85.21
42603;BME280;28233;55.748;48.752;2023-02-28T04:45:26;98703.44;;;-4.97;86.01
42603;BME280;28233;55.748;48.752;2023-02-28T04:47:32;98711.69;;;-4.99;86.38
42603;BME280;28233;55.748;48.752;2023-02-28T04:49:34;98699.38;;;-5.00;86.63
42603;BME280;28233;55.748;48.752;2023-02-28T04:51:37;98692.94;;;-4.99;86.76
42603;BME280;28233;55.748;48.752;2023-02-28T04:53:41;98693.19;;;-5.00;86.98
42603;BME280;28233;55.748;48.752;2023-02-28T04:55:44;98691.25;;;-5.05;86.92
42603;BME280;28233;55.748;48.752;2023-02-28T04:57:47;98683.19;;;-5.05;86.18
42603;BME280;28233;55.748;48.752;2023-02-28T04:59:50;98696.34;;;-5.03;86.66
42603;BME280;28233;55.748;48.752;2023-02-28T05:01:53;98692.84;;;-5.04;86.27
42603;BME280;28233;55.748;48.752;2023-02-28T05:03:57;98707.78;;;-5.08;86.11
42603;BME280;28233;55.748;48.752;2023-02-28T05:06:00;98700.63;;;-5.19;85.75
42603;BME280;28233;55.748;48.752;2023-02-28T05:08:03;98672.19;;;-5.20;85.38
42603;BME280;28233;55.748;48.752;2023-02-28T05:10:07;98690.56;;;-5.12;85.82
42603;BME280;28233;55.748;48.752;2023-02-28T05:12:11;98689.41;;;-5.16;84.96
42603;BME280;28233;55.748;48.752;2023-02-28T05:14:14;98688.03;;;-5.19;84.29
42603;BME280;28233;55.748;48.752;2023-02-28T05:16:17;98681.22;;;-5.26;83.18
42603;BME280;28233;55.748;48.752;2023-02-28T05:18:21;98670.63;;;-5.33;82.27
42603;BME280;28233;55.748;48.752;2023-02-28T05:20:23;98685.84;;;-5.22;82.55
42603;BME280;28233;55.748;48.752;2023-02-28T05:22:26;98676.03;;;-5.16;81.04
42603;BME280;28233;55.748;48.752;2023-02-28T05:24:28;98668.44;;;-5.07;81.13
42603;BME280;28233;55.748;48.752;2023-02-28T05:26:34;98661.19;;;-5.07;80.62
42603;BME280;28233;55.748;48.752;2023-02-28T05:28:38;98653.75;;;-5.05;81.13
42603;BME280;28233;55.748;48.752;2023-02-28T05:30:41;98651.94;;;-4.99;80.33
42603;BME280;28233;55.748;48.752;2023-02-28T05:32:43;98656.34;;;-4.93;80.44
42603;BME280;28233;55.748;48.752;2023-02-28T05:34:46;98668.94;;;-4.77;81.19
42603;BME280;28233;55.748;48.752;2023-02-28T05:36:48;98648.75;;;-4.68;80.62
42603;BME280;28233;55.748;48.752;2023-02-28T05:38:51;98663.25;;;-4.63;80.74
42603;BME280;28233;55.748;48.752;2023-02-28T05:40:54;98641.50;;;-4.50;80.67
42603;BME280;28233;55.748;48.752;2023-02-28T05:42:57;98624.44;;;-4.44;80.05
42603;BME280;28233;55.748;48.752;2023-02-28T05:44:59;98643.28;;;-4.39;80.27
42603;BME280;28233;55.748;48.752;2023-02-28T05:47:02;98633.69;;;-4.35;80.16
42603;BME280;28233;55.748;48.752;2023-02-28T05:49:04;98639.78;;;-4.39;79.66
42603;BME280;28233;55.748;48.752;2023-02-28T05:51:08;98649.56;;;-4.28;79.69
42603;BME280;28233;55.748;48.752;2023-02-28T05:53:10;98617.31;;;-4.33;79.18
42603;BME280;28233;55.748;48.752;2023-02-28T05:55:13;98625.38;;;-4.33;78.01
42603;BME280;28233;55.748;48.752;2023-02-28T05:57:16;98620.50;;;-4.36;77.58
42603;BME280;28233;55.748;48.752;2023-02-28T05:59:25;98623.34;;;-4.43;76.93
42603;BME280;28233;55.748;48.752;2023-02-28T06:01:35;98617.94;;;-4.48;76.55
42603;BME280;28233;55.748;48.752;2023-02-28T06:03:38;98609.88;;;-4.48;77.36
42603;BME280;28233;55.748;48.752;2023-02-28T06:05:41;98596.78;;;-4.44;77.46
42603;BME280;28233;55.748;48.752;2023-02-28T06:07:44;98599.22;;;-4.43;76.87
42603;BME280;28233;55.748;48.752;2023-02-28T06:09:46;98584.78;;;-4.42;76.31
42603;BME280;28233;55.748;48.752;2023-02-28T06:11:49;98576.97;;;-4.43;76.01
42603;BME280;28233;55.748;48.752;2023-02-28T06:13:56;98576.41;;;-4.46;76.54
42603;BME280;28233;55.748;48.752;2023-02-28T06:16:02;98577.13;;;-4.50;75.63
42603;BME280;28233;55.748;48.752;2023-02-28T06:18:04;98570.75;;;-4.49;75.53
42603;BME280;28233;55.748;48.752;2023-02-28T06:20:07;98587.88;;;-4.50;75.69
42603;BME280;28233;55.748;48.752;2023-02-28T06:22:10;98556.75;;;-4.51;75.59
42603;BME280;28233;55.748;48.752;2023-02-28T06:24:13;98560.47;;;-4.52;75.87
42603;BME280;28233;55.748;48.752;2023-02-28T06:26:16;98583.31;;;-4.50;76.13
42603;BME280;28233;55.748;48.752;2023-02-28T06:28:18;98569.16;;;-4.45;76.65
42603;BME280;28233;55.748;48.752;2023-02-28T06:30:22;98539.09;;;-4.47;75.83
42603;BME280;28233;55.748;48.752;2023-02-28T06:32:29;98551.97;;;-4.49;76.10
42603;BME280;28233;55.748;48.752;2023-02-28T06:34:32;98549.59;;;-4.46;76.34
42603;BME280;28233;55.748;48.752;2023-02-28T06:36:38;98547.16;;;-4.47;76.03
42603;BME280;28233;55.748;48.752;2023-02-28T06:38:41;98534.47;;;-4.52;76.28
42603;BME280;28233;55.748;48.752;2023-02-28T06:40:45;98521.16;;;-4.47;75.89
42603;BME280;28233;55.748;48.752;2023-02-28T06:42:54;98546.97;;;-4.40;75.74
42603;BME280;28233;55.748;48.752;2023-02-28T06:44:57;98523.66;;;-4.40;75.17
42603;BME280;28233;55.748;48.752;2023-02-28T06:47:01;98522.72;;;-4.29;75.16
42603;BME280;28233;55.748;48.752;2023-02-28T06:49:05;98512.38;;;-4.20;75.23
42603;BME280;28233;55.748;48.752;2023-02-28T06:51:20;98514.34;;;-4.10;74.02
42603;BME280;28233;55.748;48.752;2023-02-28T06:53:24;98490.78;;;-4.08;74.22
42603;BME280;28233;55.748;48.752;2023-02-28T06:55:27;98519.97;;;-3.90;74.65
42603;BME280;28233;55.748;48.752;2023-02-28T06:57:33;98505.59;;;-3.78;73.78
42603;BME280;28233;55.748;48.752;2023-02-28T06:59:35;98512.09;;;-3.69;73.30
42603;BME280;28233;55.748;48.752;2023-02-28T07:01:39;98490.91;;;-3.71;72.19
42603;BME280;28233;55.748;48.752;2023-02-28T07:03:41;98480.44;;;-3.67;72.76
42603;BME280;28233;55.748;48.752;2023-02-28T07:05:45;98470.63;;;-3.56;71.33
42603;BME280;28233;55.748;48.752;2023-02-28T07:07:47;98492.09;;;-3.56;70.32
42603;BME280;28233;55.748;48.752;2023-02-28T07:09:50;98499.44;;;-3.47;70.66
42603;BME280;28233;55.748;48.752;2023-02-28T07:11:53;98461.41;;;-3.33;70.51
42603;BME280;28233;55.748;48.752;2023-02-28T07:13:56;98475.25;;;-3.14;69.77
42603;BME280;28233;55.748;48.752;2023-02-28T07:16:02;98472.94;;;-3.01;68.65
42603;BME280;28233;55.748;48.752;2023-02-28T07:18:06;98457.50;;;-3.15;67.37
42603;BME280;28233;55.748;48.752;2023-02-28T07:20:09;98455.69;;;-3.05;68.70
42603;BME280;28233;55.748;48.752;2023-02-28T07:22:12;98459.31;;;-2.89;67.80
42603;BME280;28233;55.748;48.752;2023-02-28T07:24:17;98449.94;;;-2.81;67.63
42603;BME280;28233;55.748;48.752;2023-02-28T07:26:21;98438.94;;;-2.74;66.11
42603;BME280;28233;55.748;48.752;2023-02-28T07:28:23;98437.59;;;-2.72;65.55
42603;BME280;28233;55.748;48.752;2023-02-28T07:30:26;98454.78;;;-2.73;64.44
42603;BME280;28233;55.748;48.752;2023-02-28T07:32:29;98430.31;;;-2.77;64.53
42603;BME280;28233;55.748;48.752;2023-02-28T07:34:32;98420.34;;;-2.86;63.16
42603;BME280;28233;55.748;48.752;2023-02-28T07:36:34;98413.91;;;-2.80;63.64
42603;BME280;28233;55.748;48.752;2023-02-28T07:38:37;98427.41;;;-2.70;63.69
42603;BME280;28233;55.748;48.752;2023-02-28T07:40:40;98394.06;;;-2.64;63.75
42603;BME280;28233;55.748;48.752;2023-02-28T07:42:42;98392.53;;;-2.44;64.13
42603;BME280;28233;55.748;48.752;2023-02-28T07:44:45;98374.28;;;-2.27;64.75
42603;BME280;28233;55.748;48.752;2023-02-28T07:46:47;98372.94;;;-2.14;64.72
42603;BME280;28233;55.748;48.752;2023-02-28T07:48:50;98364.09;;;-2.04;64.44
42603;BME280;28233;55.748;48.752;2023-02-28T07:50:57;98357.13;;;-1.90;63.78
42603;BME280;28233;55.748;48.752;2023-02-28T07:52:59;98366.78;;;-1.79;64.19
42603;BME280;28233;55.748;48.752;2023-02-28T07:55:03;98353.31;;;-1.79;62.83
42603;BME280;28233;55.748;48.752;2023-02-28T07:57:07;98364.94;;;-1.78;62.31
42603;BME280;28233;55.748;48.752;2023-02-28T07:59:10;98357.91;;;-1.74;62.67
42603;BME280;28233;55.748;48.752;2023-02-28T08:01:13;98352.00;;;-1.66;62.99
42603;BME280;28233;55.748;48.752;2023-02-28T08:03:20;98343.34;;;-1.47;62.90
42603;BME280;28233;55.748;48.752;2023-02-28T08:05:23;98358.66;;;-1.22;63.54
42603;BME280;28233;55.748;48.752;2023-02-28T08:07:26;98351.06;;;-1.00;61.92
42603;BME280;28233;55.748;48.752;2023-02-28T08:09:29;98345.63;;;-0.95;59.16
42603;BME280;28233;55.748;48.752;2023-02-28T08:11:32;98331.91;;;-0.93;59.72
42603;BME280;28233;55.748;48.752;2023-02-28T08:13:35;98325.13;;;-0.86;60.75
42603;BME280;28233;55.748;48.752;2023-02-28T08:15:37;98325.34;;;-0.77;61.26
42603;BME280;28233;55.748;48.752;2023-02-28T08:17:40;98318.34;;;-0.78;59.72
42603;BME280;28233;55.748;48.752;2023-02-28T08:19:45;98331.56;;;-0.76;58.29
42603;BME280;28233;55.748;48.752;2023-02-28T08:21:48;98318.34;;;-0.73;58.90
42603;BME280;28233;55.748;48.752;2023-02-28T08:23:51;98301.63;;;-0.75;58.82
42603;BME280;28233;55.748;48.752;2023-02-28T08:25:56;98295.38;;;-0.70;59.29
42603;BME280;28233;55.748;48.752;2023-02-28T08:27:59;98288.66;;;-0.73;58.80
42603;BME280;28233;55.748;48.752;2023-02-28T08:30:02;98281.59;;;-0.69;58.25
42603;BME280;28233;55.748;48.752;2023-02-28T08:32:07;98288.94;;;-0.74;57.91
42603;BME280;28233;55.748;48.752;2023-02-28T08:34:24;98276.00;;;-0.77;57.78
42603;BME280;28233;55.748;48.752;2023-02-28T08:36:27;98264.09;;;-0.71;58.06
42603;BME280;28233;55.748;48.752;2023-02-28T08:38:31;98277.56;;;-0.71;57.46
42603;BME280;28233;55.748;48.752;2023-02-28T08:40:34;98261.34;;;-0.66;57.19
42603;BME280;28233;55.748;48.752;2023-02-28T08:42:36;98259.69;;;-0.57;57.97
42603;BME280;28233;55.748;48.752;2023-02-28T08:44:39;98243.44;;;-0.47;57.11
42603;BME280;28233;55.748;48.752;2023-02-28T08:46:42;98246.63;;;-0.39;56.90
42603;BME280;28233;55.748;48.752;2023-02-28T08:48:45;98227.16;;;-0.36;56.74
42603;BME280;28233;55.748;48.752;2023-02-28T08:51:10;98222.78;;;-0.27;54.83
42603;BME280;28233;55.748;48.752;2023-02-28T08:53:13;98214.16;;;-0.29;56.55
42603;BME280;28233;55.748;48.752;2023-02-28T08:55:15;98214.47;;;-0.36;57.25
42603;BME280;28233;55.748;48.752;2023-02-28T08:57:18;98182.97;;;-0.46;56.84
42603;BME280;28233;55.748;48.752;2023-02-28T08:59:20;98193.03;;;-0.51;57.54
42603;BME280;28233;55.748;48.752;2023-02-28T09:01:28;98167.97;;;-0.57;57.00
42603;BME280;28233;55.748;48.752;2023-02-28T09:03:32;98179.06;;;-0.64;57.97
42603;BME280;28233;55.748;48.752;2023-02-28T09:05:34;98181.56;;;-0.72;57.81
42603;BME280;28233;55.748;48.752;2023-02-28T09:07:37;98166.59;;;-0.89;57.52
42603;BME280;28233;55.748;48.752;2023-02-28T09:09:40;98132.59;;;-0.90;58.73
42603;BME280;28233;55.748;48.752;2023-02-28T09:11:56;98151.50;;;-0.95;57.07
42603;BME280;28233;55.748;48.752;2023-02-28T09:13:59;98135.09;;;-0.98;58.11
42603;BME280;28233;55.748;48.752;2023-02-28T09:16:04;98142.31;;;-0.89;58.32
42603;BME280;28233;55.748;48.752;2023-02-28T09:18:07;98119.00;;;-0.74;57.65
42603;BME280;28233;55.748;48.752;2023-02-28T09:20:10;98132.09;;;-0.57;58.00
42603;BME280;28233;55.748;48.752;2023-02-28T09:22:13;98153.31;;;-0.46;57.68
42603;BME280;28233;55.748;48.752;2023-02-28T09:24:16;98139.91;;;-0.56;57.64
42603;BME280;28233;55.748;48.752;2023-02-28T09:26:21;98132.09;;;-0.57;56.88
42603;BME280;28233;55.748;48.752;2023-02-28T09:28:25;98116.78;;;-0.67;57.49
42603;BME280;28233;55.748;48.752;2023-02-28T09:30:27;98126.47;;;-0.66;58.36
42603;BME280;28233;55.748;48.752;2023-02-28T09:32:30;98125.16;;;-0.69;58.59
42603;BME280;28233;55.748;48.752;2023-02-28T09:34:33;98126.84;;;-0.73;58.27
42603;BME280;28233;55.748;48.752;2023-02-28T09:36:36;98101.56;;;-0.82;59.23
42603;BME280;28233;55.748;48.752;2023-02-28T09:38:48;98110.66;;;-0.78;58.76
42603;BME280;28233;55.748;48.752;2023-02-28T09:40:55;98134.34;;;-0.70;58.02
42603;BME280;28233;55.748;48.752;2023-02-28T09:42:59;98109.66;;;-0.53;58.57
42603;BME280;28233;55.748;48.752;2023-02-28T09:45:06;98109.34;;;-0.46;57.45
42603;BME280;28233;55.748;48.752;2023-02-28T09:47:31;98086.94;;;-0.47;56.90
42603;BME280;28233;55.748;48.752;2023-02-28T09:49:44;98081.88;;;-0.53;58.04
42603;BME280;28233;55.748;48.752;2023-02-28T09:52:02;98079.69;;;-0.51;59.25
42603;BME280;28233;55.748;48.752;2023-02-28T09:54:08;98076.16;;;-0.47;59.04
42603;BME280;28233;55.748;48.752;2023-02-28T09:56:39;98062.72;;;-0.28;57.43
42603;BME280;28233;55.748;48.752;2023-02-28T09:59:01;98051.53;;;-0.16;56.59
42603;BME280;28233;55.748;48.752;2023-02-28T10:01:34;98048.84;;;-0.16;56.51
42603;BME280;28233;55.748;48.752;2023-02-28T10:03:42;98024.22;;;-0.14;57.49
42603;BME280;28233;55.748;48.752;2023-02-28T10:05:56;98047.91;;;-0.06;57.95
42603;BME280;28233;55.748;48.752;2023-02-28T10:10:23;97997.66;;;-0.02;56.96
42603;BME280;28233;55.748;48.752;2023-02-28T10:12:28;98013.50;;;-0.19;56.64
42603;BME280;28233;55.748;48.752;2023-02-28T10:14:33;97991.63;;;-0.18;58.45
42603;BME280;28233;55.748;48.752;2023-02-28T10:16:46;97985.06;;;-0.12;56.64
42603;BME280;28233;55.748;48.752;2023-02-28T10:18:59;97976.66;;;-0.29;56.69
42603;BME280;28233;55.748;48.752;2023-02-28T10:21:04;97969.06;;;-0.27;58.27
42603;BME280;28233;55.748;48.752;2023-02-28T10:23:28;97967.22;;;-0.32;57.35
42603;BME280;28233;55.748;48.752;2023-02-28T10:25:36;97975.16;;;-0.16;58.62
42603;BME280;28233;55.748;48.752;2023-02-28T10:27:41;97972.59;;;0.11;58.90
42603;BME280;28233;55.748;48.752;2023-02-28T10:29:55;97963.06;;;0.38;56.82
42603;BME280;28233;55.748;48.752;2023-02-28T10:32:02;97972.84;;;0.53;57.59
42603;BME280;28233;55.748;48.752;2023-02-28T10:34:07;97962.72;;;0.58;58.32
42603;BME280;28233;55.748;48.752;2023-02-28T10:36:16;97960.69;;;0.69;58.68
42603;BME280;28233;55.748;48.752;2023-02-28T10:38:37;97953.19;;;0.66;57.39
42603;BME280;28233;55.748;48.752;2023-02-28T10:40:41;97931.13;;;0.59;57.78
42603;BME280;28233;55.748;48.752;2023-02-28T10:45:16;97930.44;;;0.67;58.12
42603;BME280;28233;55.748;48.752;2023-02-28T10:47:19;97929.69;;;0.80;58.42
42603;BME280;28233;55.748;48.752;2023-02-28T10:49:27;97925.25;;;0.84;58.08
42603;BME280;28233;55.748;48.752;2023-02-28T10:51:38;97953.13;;;0.85;57.82
42603;BME280;28233;55.748;48.752;2023-02-28T10:53:52;97939.38;;;0.81;57.81
42603;BME280;28233;55.748;48.752;2023-02-28T10:56:15;97941.09;;;0.91;59.59
42603;BME280;28233;55.748;48.752;2023-02-28T10:58:30;97920.63;;;1.04;59.62
42603;BME280;28233;55.748;48.752;2023-02-28T11:00:35;97913.91;;;1.15;59.57
42603;BME280;28233;55.748;48.752;2023-02-28T11:02:38;97919.22;;;1.20;59.91
42603;BME280;28233;55.748;48.752;2023-02-28T11:04:45;97913.81;;;1.20;59.91
42603;BME280;28233;55.748;48.752;2023-02-28T11:07:04;97896.88;;;1.15;56.12
42603;BME280;28233;55.748;48.752;2023-02-28T11:09:28;97918.31;;;1.11;56.52
42603;BME280;28233;55.748;48.752;2023-02-28T11:11:45;97897.88;;;1.05;57.53
42603;BME280;28233;55.748;48.752;2023-02-28T11:13:52;97889.75;;;1.05;60.28
42603;BME280;28233;55.748;48.752;2023-02-28T11:15:58;97892.94;;;0.93;59.85
42603;BME280;28233;55.748;48.752;2023-02-28T11:20:21;97875.59;;;0.80;58.31
42603;BME280;28233;55.748;48.752;2023-02-28T11:22:28;97860.84;;;0.73;59.95
42603;BME280;28233;55.748;48.752;2023-02-28T11:24:35;97861.75;;;0.68;61.10
42603;BME280;28233;55.748;48.752;2023-02-28T11:26:41;97850.84;;;0.59;61.68
42603;BME280;28233;55.748;48.752;2023-02-28T11:28:44;97858.31;;;0.49;60.95
42603;BME280;28233;55.748;48.752;2023-02-28T11:31:08;97854.22;;;0.51;57.69
42603;BME280;28233;55.748;48.752;2023-02-28T11:35:48;97887.09;;;0.39;62.13
42603;BME280;28233;55.748;48.752;2023-02-28T11:37:52;97882.06;;;0.33;61.13
42603;BME280;28233;55.748;48.752;2023-02-28T11:39:56;97872.16;;;0.28;62.60